Time;durP1;ratioP1;P1;durP2;ratioP2;P2;SDS_P1;SDS_P2;PMS_P1;PMS_P2;Temp;Humidity;BMP_temperature;BMP_pressure;BME280_temperature;BME280_humidity;BME280_pressure;Samples;Min_cycle;Max_cycle;Signal;HPM_P1;HPM_P2
2021/12/18 00:01:35;;;;;;;20.20;9.20;;;;;;;;;;4888168;29;20056;-84
2021/12/18 00:04:01;;;;;;;38.38;12.10;;;;;;;;;;4897705;29;20051;-85
2021/12/18 00:06:27;;;;;;;37.28;9.90;;;;;;;;;;4891348;29;20051;-85
2021/12/18 00:08:54;;;;;;;28.48;9.90;;;;;;;;;;4889672;29;20431;-85
2021/12/18 00:11:20;;;;;;;24.20;9.82;;;;;;;;;;4876557;29;20377;-85
2021/12/18 00:13:46;;;;;;;32.15;9.52;;;;;;;;;;4862559;29;21337;-84
2021/12/18 00:16:12;;;;;;;32.58;9.68;;;;;;;;;;4875790;29;20415;-85
2021/12/18 00:18:38;;;;;;;50.70;10.68;;;;;;;;;;4907025;28;20048;-85
2021/12/18 00:21:07;;;;;;;38.65;8.45;;;;;;;;;;4889821;29;20056;-83
2021/12/18 00:23:33;;;;;;;46.58;9.20;;;;;;;;;;4895958;29;20064;-84
2021/12/18 00:26:01;;;;;;;23.63;7.28;;;;;;;;;;4863798;29;20060;-85
2021/12/18 00:28:28;;;;;;;14.07;7.30;;;;;;;;;;4889495;29;20165;-85
2021/12/18 00:30:54;;;;;;;22.73;6.10;;;;;;;;;;4877700;29;20052;-85
2021/12/18 00:33:20;;;;;;;10.48;4.50;;;;;;;;;;4859998;29;20056;-84
2021/12/18 00:35:46;;;;;;;11.13;3.67;;;;;;;;;;4894008;29;20062;-85
2021/12/18 00:38:12;;;;;;;7.40;3.13;;;;;;;;;;4889556;29;20051;-85
2021/12/18 00:40:59;;;;;;;8.05;3.20;;;;;;;;;;4893329;29;20122;-85
2021/12/18 00:43:33;;;;;;;6.93;3.50;;;;;;;;;;4873256;29;20108;-85
2021/12/18 00:45:59;;;;;;;17.23;3.60;;;;;;;;;;4875279;29;20308;-85
2021/12/18 00:48:26;;;;;;;17.35;4.13;;;;;;;;;;4872752;29;20059;-84
2021/12/18 00:50:52;;;;;;;24.50;4.35;;;;;;;;;;4862150;29;20611;-85
2021/12/18 00:53:18;;;;;;;13.40;4.35;;;;;;;;;;4860541;29;20047;-84
2021/12/18 00:55:44;;;;;;;16.95;4.68;;;;;;;;;;4862212;29;20047;-85
2021/12/18 00:58:11;;;;;;;13.85;4.22;;;;;;;;;;4871264;29;20975;-85
2021/12/18 01:00:38;;;;;;;14.77;3.75;;;;;;;;;;4876974;29;20052;-85
2021/12/18 01:03:05;;;;;;;12.95;3.80;;;;;;;;;;4873366;29;20106;-83
2021/12/18 01:05:31;;;;;;;17.40;4.18;;;;;;;;;;4863261;29;20095;-84
2021/12/18 01:07:58;;;;;;;25.13;5.03;;;;;;;;;;4889428;29;20052;-84
2021/12/18 01:13:13;;;;;;;14.00;3.70;;;;;;;;;;4874763;29;20048;-85
2021/12/18 01:15:46;;;;;;;8.05;3.70;;;;;;;;;;4892330;29;20060;-79
2021/12/18 01:23:41;;;;;;;9.15;3.88;;;;;;;;;;4878618;29;20075;-84
2021/12/18 01:26:20;;;;;;;7.32;3.45;;;;;;;;;;4866601;29;20044;-84
2021/12/18 01:28:47;;;;;;;5.30;3.17;;;;;;;;;;4892272;29;20041;-79
2021/12/18 01:31:13;;;;;;;11.25;3.75;;;;;;;;;;4872440;29;20064;-79
2021/12/18 01:33:39;;;;;;;9.32;3.72;;;;;;;;;;4864201;29;20463;-80
2021/12/18 01:36:05;;;;;;;10.98;3.63;;;;;;;;;;4876609;29;20161;-79
2021/12/18 01:38:32;;;;;;;8.88;3.38;;;;;;;;;;4878998;29;20059;-79
2021/12/18 01:40:58;;;;;;;8.65;3.40;;;;;;;;;;4890206;29;20040;-79
2021/12/18 01:51:34;;;;;;;5.35;2.97;;;;;;;;;;4889581;29;20048;-79
2021/12/18 01:53:59;;;;;;;5.10;2.72;;;;;;;;;;4885640;29;20055;-79
2021/12/18 01:56:25;;;;;;;5.93;2.90;;;;;;;;;;4889284;29;20135;-79
2021/12/18 01:58:52;;;;;;;3.65;2.08;;;;;;;;;;4877684;29;20739;-79
2021/12/18 02:01:18;;;;;;;4.30;2.25;;;;;;;;;;4861526;29;20040;-79
2021/12/18 02:03:44;;;;;;;6.30;2.53;;;;;;;;;;4864039;29;20041;-79
2021/12/18 02:06:10;;;;;;;4.88;2.33;;;;;;;;;;4861076;29;20052;-79
2021/12/18 02:08:38;;;;;;;6.00;2.38;;;;;;;;;;4875108;29;20051;-79
2021/12/18 02:21:36;;;;;;;9.10;2.53;;;;;;;;;;4895622;29;20755;-79
2021/12/18 02:24:02;;;;;;;5.18;2.67;;;;;;;;;;4861621;29;20039;-79
2021/12/18 02:26:28;;;;;;;6.07;2.40;;;;;;;;;;4875400;29;20040;-80
2021/12/18 02:28:57;;;;;;;4.25;2.42;;;;;;;;;;4879712;29;20119;-79
2021/12/18 02:31:23;;;;;;;5.03;2.30;;;;;;;;;;4870527;29;22558;-79
2021/12/18 02:33:49;;;;;;;6.80;2.47;;;;;;;;;;4864945;29;20067;-80
2021/12/18 02:36:23;;;;;;;4.72;2.22;;;;;;;;;;4859782;29;20059;-79
2021/12/18 02:41:38;;;;;;;4.10;1.85;;;;;;;;;;4870722;29;20044;-79
2021/12/18 02:44:05;;;;;;;3.95;1.67;;;;;;;;;;4861479;29;20499;-79
2021/12/18 02:46:32;;;;;;;2.80;1.98;;;;;;;;;;4862138;29;20597;-80
2021/12/18 02:48:58;;;;;;;3.70;1.90;;;;;;;;;;4861569;29;20066;-79
2021/12/18 02:51:24;;;;;;;5.15;1.90;;;;;;;;;;4875464;29;21459;-79
2021/12/18 02:53:52;;;;;;;3.00;2.08;;;;;;;;;;4864738;29;20110;-79
2021/12/18 02:56:22;;;;;;;4.23;1.57;;;;;;;;;;4877079;29;20547;-79
2021/12/18 02:58:50;;;;;;;2.47;1.55;;;;;;;;;;4897108;29;20074;-79
2021/12/18 03:01:17;;;;;;;2.67;1.58;;;;;;;;;;4886470;29;20162;-79
2021/12/18 03:03:44;;;;;;;3.05;1.67;;;;;;;;;;4864229;29;20051;-80
2021/12/18 03:09:18;;;;;;;;;;;;;;;;;;;;;
2021/12/18 03:27:16;;;;;;;4.75;2.08;;;;;;;;;;4886495;29;20491;-79
2021/12/18 03:29:43;;;;;;;8.40;2.35;;;;;;;;;;4890712;29;20109;-79
2021/12/18 03:32:09;;;;;;;7.75;2.00;;;;;;;;;;4874340;29;20063;-79
2021/12/18 03:34:35;;;;;;;3.85;1.92;;;;;;;;;;4877354;29;20391;-79
2021/12/18 03:37:02;;;;;;;6.07;2.33;;;;;;;;;;4875364;29;20146;-79
2021/12/18 03:39:28;;;;;;;4.35;1.95;;;;;;;;;;4885484;29;20040;-79
2021/12/18 03:41:54;;;;;;;4.10;2.20;;;;;;;;;;4875784;29;20048;-79
2021/12/18 03:44:20;;;;;;;5.60;1.92;;;;;;;;;;4884375;29;20052;-79
2021/12/18 03:46:46;;;;;;;7.72;2.47;;;;;;;;;;4875621;29;20197;-79
2021/12/18 03:49:12;;;;;;;4.10;1.83;;;;;;;;;;4870298;29;20044;-79
2021/12/18 03:51:38;;;;;;;5.57;1.80;;;;;;;;;;4874013;29;20044;-79
2021/12/18 03:54:05;;;;;;;5.25;1.58;;;;;;;;;;4855610;29;20052;-79
2021/12/18 03:56:31;;;;;;;4.05;1.50;;;;;;;;;;4877684;29;20052;-79
2021/12/18 03:58:57;;;;;;;4.28;1.77;;;;;;;;;;4868802;29;20159;-80
2021/12/18 04:01:23;;;;;;;3.63;1.65;;;;;;;;;;4887067;29;20459;-79
2021/12/18 04:03:49;;;;;;;6.28;1.92;;;;;;;;;;4878444;29;20437;-79
2021/12/18 04:06:15;;;;;;;6.30;2.55;;;;;;;;;;4885283;29;20083;-79
2021/12/18 04:08:41;;;;;;;7.50;2.78;;;;;;;;;;4876221;29;20152;-79
2021/12/18 04:11:07;;;;;;;9.23;2.50;;;;;;;;;;4889689;29;20517;-79
2021/12/18 04:13:34;;;;;;;7.18;2.22;;;;;;;;;;4876533;29;20054;-79
2021/12/18 04:16:00;;;;;;;5.75;2.35;;;;;;;;;;4878962;29;20047;-79
2021/12/18 04:18:26;;;;;;;5.97;2.00;;;;;;;;;;4873883;29;21532;-80
2021/12/18 04:20:52;;;;;;;3.50;2.05;;;;;;;;;;4892067;29;20044;-79
2021/12/18 04:23:18;;;;;;;6.97;2.25;;;;;;;;;;4885339;29;20122;-80
2021/12/18 04:25:44;;;;;;;4.82;2.08;;;;;;;;;;4888939;29;20047;-80
2021/12/18 04:28:10;;;;;;;5.75;2.45;;;;;;;;;;4868463;29;20052;-79
2021/12/18 04:30:37;;;;;;;7.43;2.63;;;;;;;;;;4879132;29;20799;-79
2021/12/18 04:33:03;;;;;;;6.20;2.22;;;;;;;;;;4892246;29;20056;-79
2021/12/18 04:35:29;;;;;;;15.48;2.90;;;;;;;;;;4871847;29;20063;-79
2021/12/18 04:37:55;;;;;;;6.43;2.53;;;;;;;;;;4872932;29;20131;-78
2021/12/18 04:40:25;;;;;;;10.45;3.17;;;;;;;;;;4873611;29;20470;-79
2021/12/18 04:42:52;;;;;;;6.97;2.47;;;;;;;;;;4862618;29;20048;-79
2021/12/18 04:45:18;;;;;;;4.72;2.10;;;;;;;;;;4874287;29;20056;-79
2021/12/18 04:47:44;;;;;;;7.95;2.47;;;;;;;;;;4891091;29;20052;-79
2021/12/18 04:50:10;;;;;;;7.95;2.10;;;;;;;;;;4871663;29;20048;-79
2021/12/18 04:52:36;;;;;;;5.95;2.45;;;;;;;;;;4881049;29;20484;-79
2021/12/18 04:55:03;;;;;;;6.50;2.20;;;;;;;;;;4888128;29;20146;-79
2021/12/18 04:57:30;;;;;;;8.65;2.25;;;;;;;;;;4877439;29;20063;-79
2021/12/18 04:59:56;;;;;;;6.38;1.98;;;;;;;;;;4891292;29;20554;-79
2021/12/18 05:02:31;;;;;;;7.72;2.05;;;;;;;;;;4889242;29;20106;-79
2021/12/18 05:04:57;;;;;;;9.43;2.47;;;;;;;;;;4889362;29;20489;-79
2021/12/18 05:07:24;;;;;;;12.80;2.83;;;;;;;;;;4889031;29;21973;-79
2021/12/18 05:09:50;;;;;;;7.40;2.75;;;;;;;;;;4881243;29;20090;-79
2021/12/18 05:12:16;;;;;;;7.40;2.63;;;;;;;;;;4889779;29;20495;-79
2021/12/18 05:14:42;;;;;;;10.93;2.67;;;;;;;;;;4880481;29;20555;-79
2021/12/18 05:17:08;;;;;;;17.15;3.22;;;;;;;;;;4859522;29;20481;-79
2021/12/18 05:19:34;;;;;;;7.88;2.80;;;;;;;;;;4877491;29;20099;-79
2021/12/18 05:22:00;;;;;;;7.22;2.53;;;;;;;;;;4880287;29;20059;-80
2021/12/18 05:24:26;;;;;;;14.35;3.10;;;;;;;;;;4892001;29;20088;-79
2021/12/18 05:26:52;;;;;;;13.18;3.25;;;;;;;;;;4882277;29;20056;-80
2021/12/18 05:29:18;;;;;;;12.65;3.20;;;;;;;;;;4906752;29;20048;-79
2021/12/18 05:31:45;;;;;;;10.07;2.90;;;;;;;;;;4879214;29;20064;-79
2021/12/18 05:34:12;;;;;;;6.35;2.83;;;;;;;;;;4862786;29;20075;-79
2021/12/18 05:39:29;;;;;;;9.77;2.90;;;;;;;;;;4877275;29;20063;-79
2021/12/18 05:41:56;;;;;;;6.60;2.55;;;;;;;;;;4896993;29;20388;-79
2021/12/18 05:44:23;;;;;;;5.78;2.50;;;;;;;;;;4889532;29;20040;-79
2021/12/18 05:46:49;;;;;;;10.07;2.92;;;;;;;;;;4882309;29;20084;-79
2021/12/18 05:49:15;;;;;;;6.97;2.35;;;;;;;;;;4891939;29;20067;-78
2021/12/18 05:51:42;;;;;;;12.32;3.03;;;;;;;;;;4867127;29;20384;-79
2021/12/18 05:54:09;;;;;;;12.00;3.30;;;;;;;;;;4858602;29;20127;-78
2021/12/18 05:56:35;;;;;;;11.88;2.97;;;;;;;;;;4866893;29;20413;-79
2021/12/18 05:59:01;;;;;;;7.55;2.70;;;;;;;;;;4866441;29;20055;-78
2021/12/18 06:01:27;;;;;;;11.77;3.00;;;;;;;;;;4861979;29;20048;-79
2021/12/18 06:03:53;;;;;;;6.05;2.58;;;;;;;;;;4880839;29;20044;-79
2021/12/18 06:06:21;;;;;;;5.55;2.00;;;;;;;;;;4862388;29;20048;-79
2021/12/18 06:08:47;;;;;;;8.53;2.40;;;;;;;;;;4893014;29;20107;-79
2021/12/18 06:11:15;;;;;;;6.00;2.20;;;;;;;;;;4862168;29;20707;-79
2021/12/18 06:13:42;;;;;;;;;;;;;;;;;;4880180;29;20052;-79
2021/12/18 06:16:09;;;;;;;11.13;2.40;;;;;;;;;;4891579;29;19994;-79
2021/12/18 06:18:35;;;;;;;9.45;2.60;;;;;;;;;;4862731;29;20044;-79
2021/12/18 06:21:01;;;;;;;10.55;2.47;;;;;;;;;;4860373;29;20051;-79
2021/12/18 06:23:27;;;;;;;5.85;2.08;;;;;;;;;;4876101;29;20048;-79
2021/12/18 06:25:53;;;;;;;8.93;2.60;;;;;;;;;;4913734;29;20499;-84
2021/12/18 06:28:21;;;;;;;5.63;2.00;;;;;;;;;;4875698;29;20152;-83
2021/12/18 06:30:47;;;;;;;9.20;2.78;;;;;;;;;;4881300;29;20065;-83
2021/12/18 06:33:13;;;;;;;7.53;2.78;;;;;;;;;;4890413;29;20048;-84
2021/12/18 06:35:39;;;;;;;8.60;2.67;;;;;;;;;;4879748;29;20048;-84
2021/12/18 06:38:05;;;;;;;7.03;2.65;;;;;;;;;;4891329;29;20101;-83
2021/12/18 06:40:31;;;;;;;9.10;3.00;;;;;;;;;;4880629;29;20043;-84
2021/12/18 06:42:57;;;;;;;10.93;3.10;;;;;;;;;;4895471;29;20048;-84
2021/12/18 06:45:23;;;;;;;10.32;3.30;;;;;;;;;;4893587;29;20047;-83
2021/12/18 06:47:49;;;;;;;9.73;2.83;;;;;;;;;;4910279;28;20087;-84
2021/12/18 06:50:16;;;;;;;10.13;2.88;;;;;;;;;;4887047;29;20115;-84
2021/12/18 06:52:42;;;;;;;8.93;3.20;;;;;;;;;;4882294;29;20052;-83
2021/12/18 06:55:08;;;;;;;10.65;3.30;;;;;;;;;;4887537;29;20210;-84
2021/12/18 06:57:34;;;;;;;12.48;3.40;;;;;;;;;;4892054;29;20785;-84
2021/12/18 07:00:00;;;;;;;11.80;3.42;;;;;;;;;;4880397;29;20111;-84
2021/12/18 07:02:26;;;;;;;8.70;2.75;;;;;;;;;;4891418;29;20072;-83
2021/12/18 07:04:53;;;;;;;10.73;3.30;;;;;;;;;;4892695;29;20044;-83
2021/12/18 07:07:19;;;;;;;19.55;3.83;;;;;;;;;;4875236;29;20389;-83
2021/12/18 07:09:45;;;;;;;9.50;3.20;;;;;;;;;;4895803;29;20452;-84
2021/12/18 07:12:11;;;;;;;15.50;4.00;;;;;;;;;;4874118;29;20044;-84
2021/12/18 07:14:37;;;;;;;11.43;3.33;;;;;;;;;;4893760;29;20494;-84
2021/12/18 07:17:04;;;;;;;14.45;3.75;;;;;;;;;;4892455;29;20412;-84
2021/12/18 07:19:30;;;;;;;9.73;3.13;;;;;;;;;;4890566;29;22776;-83
2021/12/18 07:21:56;;;;;;;7.03;2.90;;;;;;;;;;4864232;29;21256;-83
2021/12/18 07:24:23;;;;;;;10.68;4.20;;;;;;;;;;4904633;28;20127;-85
2021/12/18 07:26:49;;;;;;;12.40;3.75;;;;;;;;;;4864619;29;20063;-84
2021/12/18 07:29:15;;;;;;;12.77;4.63;;;;;;;;;;4876384;29;20380;-84
2021/12/18 07:31:41;;;;;;;12.95;4.75;;;;;;;;;;4876157;29;20064;-83
2021/12/18 07:34:07;;;;;;;15.07;5.68;;;;;;;;;;4890438;29;20763;-84
2021/12/18 07:36:33;;;;;;;17.15;5.53;;;;;;;;;;4891097;29;20051;-84
2021/12/18 07:39:00;;;;;;;12.77;4.28;;;;;;;;;;4877396;29;20095;-84
2021/12/18 07:41:28;;;;;;;15.32;4.47;;;;;;;;;;4886079;29;20055;-84
2021/12/18 07:43:54;;;;;;;;;;;;;;;;;;4891062;29;20052;-84
2021/12/18 07:46:21;;;;;;;14.57;4.60;;;;;;;;;;4877732;29;20375;-84
2021/12/18 07:48:47;;;;;;;12.82;4.85;;;;;;;;;;4882862;29;20417;-84
2021/12/18 07:51:13;;;;;;;10.70;4.47;;;;;;;;;;4859406;29;20040;-84
2021/12/18 07:53:39;;;;;;;13.98;4.93;;;;;;;;;;4875427;29;20445;-85
2021/12/18 07:56:09;;;;;;;13.70;4.10;;;;;;;;;;4892087;29;20590;-84
2021/12/18 07:58:36;;;;;;;11.93;5.07;;;;;;;;;;4890710;29;20177;-84
2021/12/18 08:01:02;;;;;;;15.80;4.63;;;;;;;;;;4894272;29;20062;-84
2021/12/18 08:03:28;;;;;;;17.40;6.50;;;;;;;;;;4875278;29;20055;-83
2021/12/18 08:05:54;;;;;;;11.27;6.40;;;;;;;;;;4890088;29;20075;-84
2021/12/18 08:08:20;;;;;;;19.02;6.90;;;;;;;;;;4887336;29;20059;-84
2021/12/18 08:10:48;;;;;;;17.75;6.30;;;;;;;;;;4879507;29;20054;-84
2021/12/18 08:13:14;;;;;;;14.43;5.57;;;;;;;;;;4893101;29;20507;-84
2021/12/18 08:15:40;;;;;;;22.55;6.22;;;;;;;;;;4894180;29;22346;-84
2021/12/18 08:18:07;;;;;;;19.73;6.03;;;;;;;;;;4875130;29;20104;-85
2021/12/18 08:20:34;;;;;;;14.02;5.35;;;;;;;;;;4860526;29;20051;-84
2021/12/18 08:23:04;;;;;;;24.73;7.75;;;;;;;;;;4877563;29;20079;-83
2021/12/18 08:25:31;;;;;;;15.88;6.50;;;;;;;;;;4877561;29;20127;-84
2021/12/18 08:27:59;;;;;;;16.05;6.80;;;;;;;;;;4864304;29;20491;-83
2021/12/18 08:30:30;;;;;;;24.60;7.63;;;;;;;;;;4872522;29;20068;-84
2021/12/18 08:32:58;;;;;;;22.13;6.78;;;;;;;;;;4890413;29;20051;-84
2021/12/18 08:35:25;;;;;;;12.52;6.13;;;;;;;;;;4887194;29;22046;-85
2021/12/18 08:37:52;;;;;;;17.80;7.30;;;;;;;;;;4865926;29;20535;-84
2021/12/18 08:40:18;;;;;;;19.50;7.60;;;;;;;;;;4858928;29;20044;-83
2021/12/18 08:42:44;;;;;;;18.30;7.22;;;;;;;;;;4877384;29;20043;-83
2021/12/18 08:45:10;;;;;;;18.30;7.10;;;;;;;;;;4887997;29;20099;-84
2021/12/18 08:47:37;;;;;;;14.48;6.85;;;;;;;;;;4862282;29;20083;-84
2021/12/18 08:50:03;;;;;;;15.50;7.07;;;;;;;;;;4888761;29;20063;-83
2021/12/18 08:52:30;;;;;;;17.97;6.83;;;;;;;;;;4878667;29;20392;-83
2021/12/18 08:54:56;;;;;;;13.93;6.15;;;;;;;;;;4880768;29;20091;-83
2021/12/18 08:57:23;;;;;;;15.77;7.10;;;;;;;;;;4883769;29;20057;-84
2021/12/18 08:59:49;;;;;;;18.77;6.45;;;;;;;;;;4900501;29;20048;-86
2021/12/18 09:02:15;;;;;;;15.48;6.50;;;;;;;;;;4885263;29;20056;-84
2021/12/18 09:04:41;;;;;;;19.67;6.47;;;;;;;;;;4895259;29;20102;-85
2021/12/18 09:07:08;;;;;;;16.27;6.30;;;;;;;;;;4870758;29;20687;-85
2021/12/18 09:09:34;;;;;;;16.40;6.10;;;;;;;;;;4868125;29;20091;-85
2021/12/18 09:12:01;;;;;;;14.77;6.15;;;;;;;;;;4879287;29;20068;-85
2021/12/18 09:14:41;;;;;;;22.45;6.78;;;;;;;;;;4893664;29;20044;-87
2021/12/18 09:17:07;;;;;;;13.90;5.65;;;;;;;;;;4858714;29;20048;-86
2021/12/18 09:19:33;;;;;;;16.65;5.25;;;;;;;;;;4899003;29;20517;-86
2021/12/18 09:22:06;;;;;;;10.70;4.75;;;;;;;;;;4897723;29;20445;-81
2021/12/18 09:24:38;;;;;;;14.95;4.63;;;;;;;;;;4896203;29;20044;-80
2021/12/18 09:27:04;;;;;;;10.60;4.35;;;;;;;;;;4881016;29;20146;-80
2021/12/18 09:29:34;;;;;;;13.40;4.65;;;;;;;;;;4869423;29;20055;-80
2021/12/18 09:32:09;;;;;;;9.82;4.65;;;;;;;;;;4913112;29;20668;-80
2021/12/18 09:34:48;;;;;;;17.60;4.63;;;;;;;;;;4897624;29;20044;-80
2021/12/18 09:37:27;;;;;;;12.75;4.57;;;;;;;;;;4864793;29;20044;-81
2021/12/18 09:39:56;;;;;;;15.20;5.28;;;;;;;;;;4881741;29;20456;-80
2021/12/18 09:42:32;;;;;;;17.98;5.20;;;;;;;;;;4895587;29;20040;-80
2021/12/18 09:45:13;;;;;;;11.38;4.68;;;;;;;;;;4881502;29;20041;-80
2021/12/18 09:47:45;;;;;;;15.80;4.55;;;;;;;;;;4882745;29;20059;-80
2021/12/18 09:50:17;;;;;;;10.55;3.97;;;;;;;;;;4876959;29;20044;-81
2021/12/18 09:52:51;;;;;;;11.07;3.63;;;;;;;;;;4882321;29;20424;-81
2021/12/18 09:55:18;;;;;;;10.50;3.58;;;;;;;;;;4867284;29;20243;-80
2021/12/18 09:57:44;;;;;;;5.13;3.28;;;;;;;;;;4869401;29;20137;-80
2021/12/18 10:00:18;;;;;;;12.13;3.95;;;;;;;;;;4885473;29;20045;-80
2021/12/18 10:02:44;;;;;;;11.38;3.65;;;;;;;;;;4903144;29;20056;-80
2021/12/18 10:05:24;;;;;;;10.25;3.78;;;;;;;;;;4878914;29;20152;-80
2021/12/18 10:08:12;;;;;;;12.80;3.95;;;;;;;;;;4872951;29;20429;-80
2021/12/18 10:10:38;;;;;;;8.18;3.47;;;;;;;;;;4919084;29;20130;-80
2021/12/18 10:13:10;;;;;;;8.77;3.35;;;;;;;;;;4868858;29;20076;-80
2021/12/18 10:15:40;;;;;;;10.32;3.28;;;;;;;;;;4887718;29;20070;-80
2021/12/18 10:18:08;;;;;;;11.85;3.38;;;;;;;;;;4882009;29;20148;-80
2021/12/18 10:20:42;;;;;;;8.32;3.35;;;;;;;;;;4870132;29;20070;-80
2021/12/18 10:23:12;;;;;;;10.32;3.45;;;;;;;;;;4885323;29;22634;-80
2021/12/18 10:25:40;;;;;;;9.73;3.58;;;;;;;;;;4902596;29;20131;-81
2021/12/18 10:28:14;;;;;;;16.77;3.63;;;;;;;;;;4886427;29;20162;-80
2021/12/18 10:30:54;;;;;;;9.88;3.70;;;;;;;;;;4889125;29;20483;-81
2021/12/18 10:33:28;;;;;;;13.57;3.60;;;;;;;;;;4913031;28;20160;-80
2021/12/18 10:35:57;;;;;;;12.93;3.70;;;;;;;;;;4900986;29;20475;-80
2021/12/18 10:38:50;;;;;;;9.60;3.58;;;;;;;;;;4885370;29;20111;-81
2021/12/18 10:41:19;;;;;;;10.15;3.20;;;;;;;;;;4915152;29;20058;-80
2021/12/18 10:44:07;;;;;;;13.38;3.80;;;;;;;;;;4883801;29;20043;-80
2021/12/18 10:46:45;;;;;;;15.10;3.63;;;;;;;;;;4888989;29;20077;-80
2021/12/18 10:49:12;;;;;;;16.00;4.40;;;;;;;;;;4881910;29;20052;-80
2021/12/18 10:51:39;;;;;;;13.07;4.03;;;;;;;;;;4904975;29;20506;-80
2021/12/18 10:54:13;;;;;;;11.43;4.05;;;;;;;;;;4896506;29;20059;-81
2021/12/18 10:56:44;;;;;;;14.80;4.05;;;;;;;;;;4884290;29;20052;-80
2021/12/18 10:59:23;;;;;;;12.35;3.85;;;;;;;;;;4883558;29;20052;-80
2021/12/18 11:01:57;;;;;;;14.60;4.10;;;;;;;;;;4901217;29;20045;-80
2021/12/18 11:04:33;;;;;;;13.25;4.00;;;;;;;;;;4898825;29;20541;-80
2021/12/18 11:07:01;;;;;;;13.15;4.40;;;;;;;;;;4901895;29;20472;-81
2021/12/18 11:09:29;;;;;;;10.95;3.67;;;;;;;;;;4896945;29;20052;-80
2021/12/18 11:14:46;;;;;;;10.10;4.25;;;;;;;;;;4901316;29;20464;-80
2021/12/18 11:17:19;;;;;;;13.67;4.77;;;;;;;;;;4866700;29;20048;-80
2021/12/18 11:19:51;;;;;;;14.93;4.30;;;;;;;;;;4885464;29;20080;-80
2021/12/18 11:22:17;;;;;;;12.88;4.97;;;;;;;;;;4866383;29;20044;-80
2021/12/18 11:24:45;;;;;;;14.35;4.72;;;;;;;;;;4900075;29;20079;-80
2021/12/18 11:27:16;;;;;;;13.35;4.53;;;;;;;;;;4901678;29;20062;-81
2021/12/18 11:29:51;;;;;;;8.18;4.03;;;;;;;;;;4881485;29;20154;-80
2021/12/18 11:32:40;;;;;;;12.68;4.53;;;;;;;;;;4871747;29;20072;-80
2021/12/18 11:35:16;;;;;;;13.55;5.30;;;;;;;;;;4894781;29;20056;-79
2021/12/18 11:37:53;;;;;;;11.13;4.82;;;;;;;;;;4881392;29;20064;-80
2021/12/18 11:40:20;;;;;;;9.82;4.63;;;;;;;;;;4891687;29;20542;-81
2021/12/18 11:42:49;;;;;;;11.40;5.15;;;;;;;;;;4897629;29;20124;-81
2021/12/18 11:45:20;;;;;;;8.30;4.90;;;;;;;;;;4881717;29;20118;-81
2021/12/18 11:47:56;;;;;;;11.60;4.78;;;;;;;;;;4884989;29;20071;-81
2021/12/18 11:50:24;;;;;;;11.15;4.78;;;;;;;;;;4878380;29;20043;-80
2021/12/18 11:53:09;;;;;;;10.93;4.20;;;;;;;;;;4888700;29;20056;-81
2021/12/18 11:55:57;;;;;;;7.97;4.20;;;;;;;;;;4898813;29;20067;-81
2021/12/18 11:58:35;;;;;;;8.40;4.03;;;;;;;;;;4881117;29;20379;-81
2021/12/18 12:01:03;;;;;;;9.93;4.30;;;;;;;;;;4867167;29;20151;-80
2021/12/18 12:04:04;;;;;;;9.77;4.43;;;;;;;;;;4868542;29;20040;-81
2021/12/18 12:06:31;;;;;;;7.35;4.25;;;;;;;;;;4855655;29;20679;-80
2021/12/18 12:09:13;;;;;;;10.95;5.10;;;;;;;;;;4871815;29;20444;-80
2021/12/18 12:12:01;;;;;;;9.77;4.50;;;;;;;;;;4891318;29;20066;-80
2021/12/18 12:14:28;;;;;;;;;;;;;;;;;;4893899;29;20052;-81
2021/12/18 12:17:07;;;;;;;9.43;5.20;;;;;;;;;;4897513;29;20339;-81
2021/12/18 12:19:40;;;;;;;12.27;5.25;;;;;;;;;;4895245;29;20137;-81
2021/12/18 12:22:07;;;;;;;11.02;4.70;;;;;;;;;;4895766;29;20535;-81
2021/12/18 12:24:52;;;;;;;9.98;4.57;;;;;;;;;;4866981;29;20060;-81
2021/12/18 12:27:39;;;;;;;10.27;3.55;;;;;;;;;;4881365;29;20490;-81
2021/12/18 12:30:11;;;;;;;7.70;3.58;;;;;;;;;;4922930;28;20046;-80
2021/12/18 12:32:39;;;;;;;7.05;3.15;;;;;;;;;;4894469;28;20086;-81
2021/12/18 12:35:17;;;;;;;7.80;3.58;;;;;;;;;;4920989;28;20549;-81
2021/12/18 12:37:54;;;;;;;6.28;2.47;;;;;;;;;;4898740;29;20054;-81
2021/12/18 12:40:49;;;;;;;9.50;2.80;;;;;;;;;;4879440;28;20078;-81
2021/12/18 12:43:43;;;;;;;8.65;3.40;;;;;;;;;;4879109;28;20051;-81
2021/12/18 12:46:24;;;;;;;8.52;3.28;;;;;;;;;;4880118;29;20044;-81
2021/12/18 12:48:59;;;;;;;8.80;3.00;;;;;;;;;;4886566;28;20041;-80
2021/12/18 12:51:45;;;;;;;7.85;3.38;;;;;;;;;;4912054;28;20090;-81
2021/12/18 12:54:11;;;;;;;6.72;2.58;;;;;;;;;;4905612;29;20039;-82
2021/12/18 12:56:37;;;;;;;8.13;3.33;;;;;;;;;;4864109;29;20049;-80
2021/12/18 12:59:24;;;;;;;4.90;2.88;;;;;;;;;;4896170;29;20056;-80
2021/12/18 13:01:50;;;;;;;8.20;2.95;;;;;;;;;;4902371;29;20056;-81
2021/12/18 13:04:19;;;;;;;9.05;3.15;;;;;;;;;;4885676;29;20151;-81
2021/12/18 13:06:48;;;;;;;9.30;2.97;;;;;;;;;;4861506;29;20052;-83
2021/12/18 13:09:15;;;;;;;7.20;3.47;;;;;;;;;;4878934;29;20966;-82
2021/12/18 13:11:53;;;;;;;12.50;3.47;;;;;;;;;;4879017;29;20112;-81
2021/12/18 13:14:21;;;;;;;8.55;2.92;;;;;;;;;;4873946;29;20104;-81
2021/12/18 13:16:50;;;;;;;7.35;2.65;;;;;;;;;;4898228;29;20562;-81
2021/12/18 13:19:31;;;;;;;8.80;2.65;;;;;;;;;;4894366;29;20391;-80
2021/12/18 13:22:10;;;;;;;10.40;2.60;;;;;;;;;;4883115;29;20048;-81
2021/12/18 13:24:39;;;;;;;9.13;2.30;;;;;;;;;;4894398;29;20053;-80
2021/12/18 13:27:25;;;;;;;6.10;2.63;;;;;;;;;;4865318;29;20059;-80
2021/12/18 13:30:11;;;;;;;10.05;2.53;;;;;;;;;;4898452;29;20412;-80
2021/12/18 13:32:37;;;;;;;8.95;3.08;;;;;;;;;;4871705;29;20578;-81
2021/12/18 13:35:35;;;;;;;9.10;2.60;;;;;;;;;;4868622;29;20525;-80
2021/12/18 13:38:07;;;;;;;9.00;2.72;;;;;;;;;;4904480;29;20056;-77
2021/12/18 13:40:44;;;;;;;6.50;2.58;;;;;;;;;;4906044;29;20040;-80
2021/12/18 13:43:11;;;;;;;10.43;3.07;;;;;;;;;;4887449;29;20633;-80
2021/12/18 13:45:51;;;;;;;8.88;2.80;;;;;;;;;;4900357;29;20794;-80
2021/12/18 13:48:17;;;;;;;9.82;3.10;;;;;;;;;;4856647;29;20052;-81
2021/12/18 13:50:52;;;;;;;8.77;2.85;;;;;;;;;;4886487;29;20050;-80
2021/12/18 13:53:18;;;;;;;8.65;3.00;;;;;;;;;;4886570;29;20088;-80
2021/12/18 13:55:55;;;;;;;8.73;3.03;;;;;;;;;;4886736;29;20111;-79
2021/12/18 13:58:25;;;;;;;10.95;3.25;;;;;;;;;;4885803;29;22229;-80
2021/12/18 14:00:58;;;;;;;11.45;3.15;;;;;;;;;;4875825;29;20142;-80
2021/12/18 14:03:26;;;;;;;8.50;3.05;;;;;;;;;;4886193;29;21680;-80
2021/12/18 14:05:52;;;;;;;;;;;;;;;;;;4906368;29;20081;-80
2021/12/18 14:08:27;;;;;;;7.72;3.00;;;;;;;;;;4899135;29;19961;-81
2021/12/18 14:10:55;;;;;;;12.00;3.53;;;;;;;;;;4892046;29;20051;-81
2021/12/18 14:13:29;;;;;;;6.45;2.70;;;;;;;;;;4899185;29;20080;-80
2021/12/18 14:16:08;;;;;;;11.07;3.10;;;;;;;;;;4905613;29;20045;-81
2021/12/18 14:18:35;;;;;;;8.60;2.90;;;;;;;;;;4887240;29;20079;-80
2021/12/18 14:21:07;;;;;;;9.25;3.05;;;;;;;;;;4882670;29;20054;-80
2021/12/18 14:23:38;;;;;;;9.07;3.50;;;;;;;;;;4881940;29;20100;-80
2021/12/18 14:26:17;;;;;;;9.45;3.30;;;;;;;;;;4888193;29;20488;-80
2021/12/18 14:28:44;;;;;;;9.43;3.25;;;;;;;;;;4902167;29;20047;-81
2021/12/18 14:31:42;;;;;;;6.88;2.75;;;;;;;;;;4885252;29;20058;-81
2021/12/18 14:34:10;;;;;;;11.93;3.58;;;;;;;;;;4882541;29;20071;-80
2021/12/18 14:37:05;;;;;;;8.90;2.92;;;;;;;;;;4896018;29;20052;-80
2021/12/18 14:39:51;;;;;;;9.10;3.40;;;;;;;;;;4880593;29;20052;-79
2021/12/18 14:42:21;;;;;;;11.60;3.63;;;;;;;;;;4881874;29;20044;-79
2021/12/18 14:45:08;;;;;;;9.85;3.60;;;;;;;;;;4903057;29;20463;-79
2021/12/18 14:47:37;;;;;;;17.85;4.07;;;;;;;;;;4916397;29;20052;-79
2021/12/18 14:50:11;;;;;;;14.68;3.92;;;;;;;;;;4899235;29;20409;-79
2021/12/18 14:52:49;;;;;;;8.20;3.20;;;;;;;;;;4883197;29;20099;-79
2021/12/18 14:55:16;;;;;;;14.20;3.42;;;;;;;;;;4897962;29;20051;-79
2021/12/18 14:57:50;;;;;;;10.95;3.72;;;;;;;;;;4889109;29;20135;-79
2021/12/18 15:00:22;;;;;;;5.13;2.90;;;;;;;;;;4884179;29;20052;-79
2021/12/18 15:02:55;;;;;;;10.30;2.70;;;;;;;;;;4882049;29;20442;-78
2021/12/18 15:05:21;;;;;;;5.80;2.70;;;;;;;;;;4899811;29;20044;-78
2021/12/18 15:07:58;;;;;;;8.77;3.28;;;;;;;;;;4901523;29;20083;-79
2021/12/18 15:10:24;;;;;;;7.85;3.10;;;;;;;;;;4885195;29;21519;-79
2021/12/18 15:12:50;;;;;;;8.40;2.85;;;;;;;;;;4905517;29;20547;-79
2021/12/18 15:15:16;;;;;;;8.90;3.40;;;;;;;;;;4879035;29;20404;-79
2021/12/18 15:17:42;;;;;;;6.18;2.83;;;;;;;;;;4875050;29;20044;-79
2021/12/18 15:20:09;;;;;;;9.60;3.25;;;;;;;;;;4902249;29;20149;-79
2021/12/18 15:22:35;;;;;;;9.82;3.13;;;;;;;;;;4913950;29;20051;-79
2021/12/18 15:25:01;;;;;;;11.02;3.28;;;;;;;;;;4899661;29;20039;-79
2021/12/18 15:27:27;;;;;;;7.43;2.60;;;;;;;;;;4883124;29;20048;-79
2021/12/18 15:29:53;;;;;;;12.88;3.03;;;;;;;;;;4898829;29;20080;-78
2021/12/18 15:32:23;;;;;;;11.48;2.90;;;;;;;;;;4899554;29;20083;-79
2021/12/18 15:34:49;;;;;;;6.57;3.47;;;;;;;;;;4875395;29;20394;-79
2021/12/18 15:37:15;;;;;;;7.30;3.33;;;;;;;;;;4886495;29;20106;-79
2021/12/18 15:39:45;;;;;;;10.93;4.18;;;;;;;;;;4874691;29;20474;-79
2021/12/18 15:42:11;;;;;;;12.10;4.95;;;;;;;;;;4889703;29;20489;-79
2021/12/18 15:44:38;;;;;;;18.65;8.40;;;;;;;;;;4902021;29;20076;-79
2021/12/18 15:47:04;;;;;;;9.93;4.57;;;;;;;;;;4887376;29;20421;-79